Time;durP1;ratioP1;P1;durP2;ratioP2;P2;SDS_P1;SDS_P2;PMS_P1;PMS_P2;Temp;Humidity;BMP_temperature;BMP_pressure;BME280_temperature;BME280_humidity;BME280_pressure;Samples;Min_cycle;Max_cycle;Signal;HPM_P1;HPM_P2
2023/10/12 00:00:24;;;;;;;12.40;5.40;;;;;;;10.68;49.40;99982.03;106061;1257;74070;-78
2023/10/12 00:02:48;;;;;;;9.30;4.80;;;;;;;10.65;49.26;99974.96;106167;1259;69369;-76
2023/10/12 00:05:18;;;;;;;7.20;4.70;;;;;;;10.62;49.29;99961.76;107035;1259;72762;-77
2023/10/12 00:07:47;;;;;;;7.90;4.70;;;;;;;10.61;49.14;99961.35;108035;1257;59625;-76
2023/10/12 00:12:47;;;;;;;12.10;4.80;;;;;;;10.59;49.63;99956.73;105756;1262;72748;-79
2023/10/12 00:15:28;;;;;;;8.20;4.90;;;;;;;10.59;49.38;99959.11;105669;1257;69357;-79
2023/10/12 00:18:08;;;;;;;12.50;4.90;;;;;;;10.58;49.47;99952.18;105454;1259;71785;-78
2023/10/12 00:20:39;;;;;;;8.60;5.20;;;;;;;10.57;49.58;99932.19;105463;1258;60047;-78
2023/10/12 00:23:10;;;;;;;12.70;5.40;;;;;;;10.55;49.81;99938.33;105665;1256;60043;-76
2023/10/12 00:25:46;;;;;;;8.20;5.50;;;;;;;10.53;49.99;99927.99;105567;1254;73092;-80
2023/10/12 00:28:18;;;;;;;10.30;4.40;;;;;;;10.54;49.80;99932.51;105547;1260;70493;-76
2023/10/12 00:30:47;;;;;;;10.40;5.20;;;;;;;10.54;50.12;99922.05;105653;1254;72442;-77
2023/10/12 00:33:17;;;;;;;10.10;5.70;;;;;;;10.55;49.97;99919.91;105759;1254;59715;-77
2023/10/12 00:35:50;;;;;;;7.20;5.10;;;;;;;10.55;49.92;99906.45;105495;1254;59655;-78
2023/10/12 00:38:23;;;;;;;13.30;5.00;;;;;;;10.55;50.09;99908.67;105903;1259;73130;-77
2023/10/12 00:40:58;;;;;;;10.10;4.50;;;;;;;10.55;50.17;99903.06;106036;1258;67848;-76
2023/10/12 00:43:35;;;;;;;10.50;4.70;;;;;;;10.54;50.10;99917.48;106016;1256;72706;-75
2023/10/12 00:46:33;;;;;;;7.60;5.10;;;;;;;10.55;50.19;99907.11;105726;1256;59651;-76
2023/10/12 00:51:51;;;;;;;13.60;5.80;;;;;;;10.54;49.93;99904.75;105753;1255;71735;-77
2023/10/12 00:54:40;;;;;;;13.30;4.60;;;;;;;10.53;50.38;99906.33;105532;1257;69653;-77
2023/10/12 00:57:09;;;;;;;10.30;4.90;;;;;;;10.52;50.24;99894.93;105796;1259;71421;-78
2023/10/12 00:59:37;;;;;;;9.30;4.30;;;;;;;10.51;50.12;99891.57;105985;1253;60350;-76
2023/10/12 01:02:09;;;;;;;12.50;5.50;;;;;;;10.51;50.36;99884.86;106052;1253;59649;-77
2023/10/12 01:04:39;;;;;;;8.20;4.90;;;;;;;10.50;50.59;99887.65;106107;1253;70618;-81
2023/10/12 01:07:11;;;;;;;13.90;5.60;;;;;;;10.50;50.37;99888.05;108453;1254;68803;-78
2023/10/12 01:09:42;;;;;;;10.30;4.60;;;;;;;10.48;50.49;99889.80;108575;1253;71479;-76
2023/10/12 01:12:14;;;;;;;11.90;5.40;;;;;;;10.47;50.57;99887.77;108263;1253;59735;-77
2023/10/12 01:14:43;;;;;;;11.60;5.50;;;;;;;10.46;50.68;99885.45;106242;1257;59993;-79
2023/10/12 01:17:24;;;;;;;8.80;4.60;;;;;;;10.44;50.42;99876.58;106149;1256;72291;-78
2023/10/12 01:19:52;;;;;;;13.40;5.10;;;;;;;10.41;51.05;99883.58;108240;1255;70235;-79
2023/10/12 01:22:31;;;;;;;9.70;4.90;;;;;;;10.40;51.04;99876.84;108622;1257;71440;-78
2023/10/12 01:25:10;;;;;;;9.70;4.40;;;;;;;10.38;51.21;99883.90;108235;1256;59353;-79
2023/10/12 01:27:44;;;;;;;8.30;4.50;;;;;;;10.37;51.00;99874.32;106645;1255;59637;-75
2023/10/12 01:30:22;;;;;;;7.60;4.70;;;;;;;10.36;51.27;99879.16;106315;1257;72109;-77
2023/10/12 01:32:53;;;;;;;8.20;4.90;;;;;;;10.33;51.21;99875.96;106441;1260;68823;-76
2023/10/12 01:35:26;;;;;;;9.40;4.90;;;;;;;10.30;51.35;99886.00;106373;1254;72840;-77
2023/10/12 01:38:00;;;;;;;14.40;4.80;;;;;;;10.26;51.51;99881.27;106342;1258;60014;-75
2023/10/12 01:40:40;;;;;;;9.40;5.10;;;;;;;10.23;51.80;99888.52;106255;1256;60145;-76
2023/10/12 01:43:12;;;;;;;8.80;4.50;;;;;;;10.20;51.85;99880.89;105963;1259;71855;-75
2023/10/12 01:45:43;;;;;;;12.70;5.50;;;;;;;10.16;51.99;99882.50;105728;1256;70299;-76
2023/10/12 01:48:12;;;;;;;7.80;4.40;;;;;;;10.13;52.06;99880.57;105679;1260;71462;-75
2023/10/12 01:50:40;;;;;;;9.00;5.30;;;;;;;10.09;51.79;99870.34;105657;1256;59712;-76
2023/10/12 01:55:46;;;;;;;7.80;4.90;;;;;;;10.02;52.54;99873.50;106652;1256;72852;-77
2023/10/12 01:58:21;;;;;;;9.10;4.40;;;;;;;10.00;52.60;99875.85;106793;1260;69001;-75
2023/10/12 02:00:51;;;;;;;10.80;4.80;;;;;;;9.98;52.41;99860.35;108259;1254;72719;-81
2023/10/12 02:05:59;;;;;;;7.60;4.70;;;;;;;9.95;52.81;99863.99;108985;1254;59718;-81
2023/10/12 02:08:45;;;;;;;15.80;7.90;;;;;;;9.94;53.01;99867.09;108001;1257;70948;-80
2023/10/12 02:13:47;;;;;;;14.50;5.30;;;;;;;9.93;53.05;99863.89;105972;1256;71071;-81
2023/10/12 02:16:31;;;;;;;15.90;6.50;;;;;;;9.91;53.10;99860.33;105848;1256;59725;-81
2023/10/12 02:19:19;;;;;;;12.70;6.60;;;;;;;9.88;53.37;99859.34;105913;1260;59587;-81
2023/10/12 02:21:46;;;;;;;12.40;6.60;;;;;;;9.84;53.20;99861.44;108494;1254;71838;-81
2023/10/12 02:24:14;;;;;;;11.20;6.30;;;;;;;9.82;53.41;99858.81;107729;1258;69153;-81
2023/10/12 02:29:18;;;;;;;;;;;;;;;9.79;53.85;99853.98;105746;1259;59670;-81
2023/10/12 02:34:29;;;;;;;12.60;5.70;;;;;;;9.73;54.24;99840.33;106165;1259;72851;-80
2023/10/12 02:39:40;;;;;;;11.30;5.20;;;;;;;9.68;54.30;99833.72;105813;1254;72689;-82
2023/10/12 02:47:18;;;;;;;13.50;5.20;;;;;;;9.62;54.82;99828.23;105873;1253;70809;-79
2023/10/12 02:49:46;;;;;;;10.00;5.50;;;;;;;9.59;54.98;99830.40;105841;1257;69008;-79
2023/10/12 02:52:20;;;;;;;8.50;5.60;;;;;;;9.58;55.03;99836.33;105934;1256;70901;-80
2023/10/12 02:54:51;;;;;;;9.40;4.90;;;;;;;9.56;55.30;99831.98;105980;1254;60228;-79
2023/10/12 02:57:25;;;;;;;13.00;5.10;;;;;;;9.55;55.32;99834.96;106372;1256;60210;-81
2023/10/12 02:59:57;;;;;;;12.70;5.70;;;;;;;9.52;55.48;99823.89;106034;1254;71781;-77
2023/10/12 03:02:32;;;;;;;9.90;5.50;;;;;;;9.51;55.69;99828.48;107124;1253;70401;-79
2023/10/12 03:05:06;;;;;;;10.40;5.40;;;;;;;9.49;55.81;99831.98;109083;1253;71550;-78
2023/10/12 03:07:39;;;;;;;10.40;5.80;;;;;;;9.48;56.12;99834.77;107912;1254;60065;-79
2023/10/12 03:10:14;;;;;;;11.80;6.00;;;;;;;9.48;56.02;99828.92;106516;1254;59602;-77
2023/10/12 03:12:44;;;;;;;11.10;5.70;;;;;;;9.47;55.98;99835.75;105924;1259;72069;-77
2023/10/12 03:15:13;;;;;;;10.30;5.30;;;;;;;9.45;56.20;99834.85;105869;1256;69708;-78
2023/10/12 03:17:54;;;;;;;10.40;4.30;;;;;;;9.44;56.40;99821.06;105883;1254;72091;-77
2023/10/12 03:20:28;;;;;;;11.00;4.80;;;;;;;9.42;56.43;99821.53;105690;1254;59764;-78
2023/10/12 03:23:12;;;;;;;12.90;5.20;;;;;;;9.40;56.63;99820.01;105750;1257;60022;-79
2023/10/12 03:25:43;;;;;;;14.20;4.90;;;;;;;9.39;56.55;99810.98;105746;1253;71543;-80
2023/10/12 03:28:45;;;;;;;12.20;5.10;;;;;;;9.37;56.83;99808.33;105631;1260;70409;-80
2023/10/12 03:33:59;;;;;;;11.90;4.50;;;;;;;9.33;57.21;99807.84;105578;1256;60529;-80
2023/10/12 03:36:32;;;;;;;11.90;5.10;;;;;;;9.32;57.02;99798.65;105889;1256;60342;-81
2023/10/12 03:47:15;;;;;;;8.70;4.70;;;;;;;9.21;57.84;99795.05;105793;1253;62470;-78
2023/10/12 03:50:33;;;;;;;9.10;4.70;;;;;;;9.24;57.81;99794.94;105842;1254;60897;-76
2023/10/12 03:52:34;;;;;;;10.40;5.30;;;;;;;9.23;57.85;99798.45;105747;1254;73881;-76
2023/10/12 03:57:45;;;;;;;7.20;4.50;;;;;;;9.20;58.11;99792.54;106002;1253;71312;-77
2023/10/12 04:06:06;;;;;;;11.80;6.00;;;;;;;9.19;58.49;99794.13;108633;1253;72565;-77
2023/10/12 04:16:27;;;;;;;10.80;5.30;;;;;;;9.21;58.45;99792.09;105796;1258;60485;-78
2023/10/12 04:21:26;;;;;;;8.80;5.30;;;;;;;9.17;58.68;99790.55;106109;1257;68465;-79
2023/10/12 04:26:37;;;;;;;;;;;;;;;9.17;59.07;99797.44;106112;1259;60536;-81
2023/10/12 04:29:21;;;;;;;10.30;5.20;;;;;;;9.17;59.20;99799.23;106151;1253;60505;-81
2023/10/12 04:31:49;;;;;;;11.00;5.90;;;;;;;9.17;59.36;99795.54;107625;1254;72695;-81
2023/10/12 04:34:26;;;;;;;12.00;5.50;;;;;;;9.18;59.23;99795.41;108061;1256;69155;-78
2023/10/12 04:37:11;;;;;;;9.80;5.30;;;;;;;9.20;59.47;99792.42;107776;1253;72742;-79
2023/10/12 04:39:46;;;;;;;9.30;5.10;;;;;;;9.22;59.49;99792.75;107835;1253;60296;-78
2023/10/12 04:42:23;;;;;;;12.50;5.20;;;;;;;9.23;59.34;99793.85;105992;1259;60080;-79
2023/10/12 04:45:23;;;;;;;11.50;5.50;;;;;;;9.24;59.64;99790.70;105950;1256;72600;-80
2023/10/12 04:47:57;;;;;;;11.70;5.20;;;;;;;9.27;59.93;99790.48;106142;1253;68990;-80
2023/10/12 04:50:43;;;;;;;11.40;5.60;;;;;;;9.30;59.75;99785.02;106300;1253;71300;-81
2023/10/12 04:53:12;;;;;;;9.50;5.00;;;;;;;9.32;60.00;99787.13;105834;1260;60551;-80
2023/10/12 04:55:47;;;;;;;10.00;5.80;;;;;;;9.34;59.87;99793.77;106110;1256;60504;-80
2023/10/12 04:58:35;;;;;;;9.20;5.60;;;;;;;9.38;60.44;99784.54;106917;1253;72635;-79
2023/10/12 05:01:19;;;;;;;8.40;5.20;;;;;;;9.42;60.26;99793.44;107373;1253;72451;-81
2023/10/12 05:04:09;;;;;;;8.40;5.50;;;;;;;9.47;60.28;99787.13;107438;1254;70123;-81
2023/10/12 05:07:07;;;;;;;11.50;6.00;;;;;;;9.52;60.22;99787.48;107339;1254;60614;-82
2023/10/12 05:09:34;;;;;;;14.20;6.30;;;;;;;9.58;60.32;99786.33;108261;1254;60258;-89
2023/10/12 05:12:02;;;;;;;12.00;6.40;;;;;;;9.62;60.21;99786.02;107733;1254;74851;-86
2023/10/12 05:14:30;;;;;;;9.30;5.00;;;;;;;9.69;60.11;99790.52;106549;1256;69016;-86
2023/10/12 05:16:58;;;;;;;9.70;5.40;;;;;;;9.73;60.19;99784.62;106491;1256;71618;-88
2023/10/12 05:19:26;;;;;;;12.30;6.10;;;;;;;9.76;60.34;99790.80;106344;1264;59476;-90
2023/10/12 05:21:55;;;;;;;10.00;5.40;;;;;;;9.81;60.27;99786.60;106176;1260;60475;-87
2023/10/12 05:24:23;;;;;;;11.00;5.80;;;;;;;9.86;60.42;99780.45;106409;1256;72563;-85
2023/10/12 05:29:38;;;;;;;11.40;5.00;;;;;;;9.99;60.71;99783.48;106218;1259;71425;-84
2023/10/12 05:32:06;;;;;;;12.30;5.00;;;;;;;10.03;60.59;99799.63;106539;1256;62051;-84
2023/10/12 05:39:50;;;;;;;9.30;5.40;;;;;;;10.22;60.85;99792.61;107474;1259;71065;-84
2023/10/12 05:42:25;;;;;;;;;;;;;;;10.28;60.81;99793.95;107210;1259;72721;-84
2023/10/12 05:44:53;;;;;;;8.70;5.90;;;;;;;10.33;61.29;99805.46;106432;1256;60371;-84
2023/10/12 05:47:30;;;;;;;10.20;4.80;;;;;;;10.38;61.17;99789.40;107508;1255;60711;-84
2023/10/12 05:50:03;;;;;;;10.90;5.50;;;;;;;10.44;61.05;99789.80;107636;1256;72698;-87
2023/10/12 05:52:34;;;;;;;9.60;5.80;;;;;;;10.51;61.16;99781.70;107189;1264;67833;-84
2023/10/12 05:55:16;;;;;;;15.50;5.10;;;;;;;10.57;60.93;99784.35;107346;1256;71505;-85
2023/10/12 05:57:50;;;;;;;12.40;5.20;;;;;;;10.65;61.25;99794.94;107560;1256;59117;-84
2023/10/12 06:00:35;;;;;;;11.40;6.00;;;;;;;10.73;60.94;99781.54;109035;1256;58788;-84
2023/10/12 06:03:05;;;;;;;12.50;5.70;;;;;;;10.80;61.14;99778.31;109175;1254;72607;-82
2023/10/12 06:05:34;;;;;;;16.50;5.50;;;;;;;10.89;61.17;99775.78;109238;1258;68789;-84
2023/10/12 06:08:03;;;;;;;9.50;5.90;;;;;;;10.97;61.23;99782.40;108926;1256;71479;-83
2023/10/12 06:10:31;;;;;;;8.50;5.60;;;;;;;11.07;61.33;99787.07;108957;1256;59252;-85
2023/10/12 06:13:01;;;;;;;11.90;5.50;;;;;;;11.15;61.36;99784.76;108133;1255;60329;-84
2023/10/12 06:15:39;;;;;;;11.50;5.70;;;;;;;11.25;61.18;99777.62;108528;1256;74899;-86
2023/10/12 06:18:13;;;;;;;11.60;5.20;;;;;;;11.33;60.91;99787.15;106216;1256;70326;-86
2023/10/12 06:20:42;;;;;;;8.70;4.70;;;;;;;11.39;60.85;99786.27;106213;1257;73146;-85
2023/10/12 06:23:13;;;;;;;12.50;5.60;;;;;;;11.44;60.72;99782.92;106058;1256;60457;-84
2023/10/12 06:25:45;;;;;;;9.40;5.40;;;;;;;11.47;60.81;99796.90;106434;1256;60365;-83
2023/10/12 06:28:33;;;;;;;13.10;5.00;;;;;;;11.50;60.76;99785.76;106186;1254;76677;-84
2023/10/12 06:31:03;;;;;;;11.70;5.60;;;;;;;11.54;60.58;99779.69;106125;1259;68314;-86
2023/10/12 06:33:34;;;;;;;9.80;5.30;;;;;;;11.58;60.68;99787.38;106740;1256;75996;-81
2023/10/12 06:36:05;;;;;;;12.90;6.10;;;;;;;11.63;60.46;99790.11;107134;1256;60557;-84
2023/10/12 06:43:57;;;;;;;11.60;6.10;;;;;;;11.85;60.47;99791.91;105791;1262;69722;-84
2023/10/12 06:46:34;;;;;;;13.20;5.70;;;;;;;11.92;60.33;99780.27;105716;1256;75299;-84
2023/10/12 06:49:07;;;;;;;12.50;5.70;;;;;;;12.02;60.61;99793.92;106201;1256;60530;-84
2023/10/12 06:51:36;;;;;;;9.40;4.80;;;;;;;12.12;60.69;99795.30;108195;1261;60363;-83
2023/10/12 06:54:17;;;;;;;12.30;5.60;;;;;;;12.22;60.47;99777.48;107779;1256;72584;-84
2023/10/12 06:56:52;;;;;;;13.20;5.60;;;;;;;12.34;60.28;99781.56;107294;1262;69372;-85
2023/10/12 06:59:28;;;;;;;9.60;5.30;;;;;;;12.45;59.99;99786.33;107325;1256;71413;-82
2023/10/12 07:02:11;;;;;;;12.00;6.00;;;;;;;12.55;59.90;99791.77;108223;1254;61917;-86
2023/10/12 07:04:53;;;;;;;16.10;5.60;;;;;;;12.64;59.76;99794.56;109111;1254;58758;-83
2023/10/12 07:07:27;;;;;;;10.40;5.40;;;;;;;12.75;59.48;99801.22;109028;1254;72841;-85
2023/10/12 07:12:42;;;;;;;13.20;6.10;;;;;;;12.95;59.33;99771.51;107129;1256;72014;-83
2023/10/12 07:15:19;;;;;;;12.10;5.90;;;;;;;13.10;59.38;99764.38;106855;1256;59347;-86
2023/10/12 07:17:49;;;;;;;12.00;6.30;;;;;;;13.27;59.25;99773.96;107117;1256;60700;-84
2023/10/12 07:23:06;;;;;;;10.80;4.80;;;;;;;13.56;58.99;99764.98;107275;1256;70301;-83
2023/10/12 07:25:43;;;;;;;14.90;5.80;;;;;;;13.68;58.53;99764.92;107695;1256;72850;-85
2023/10/12 07:39:20;;;;;;;8.90;4.70;;;;;;;14.42;57.25;99748.89;106566;1257;71518;-85
2023/10/12 07:41:54;;;;;;;11.70;5.80;;;;;;;14.53;57.34;99737.89;106054;1256;60459;-83
2023/10/12 07:44:27;;;;;;;17.00;5.30;;;;;;;14.64;57.30;99745.02;106795;1255;60029;-83
2023/10/12 07:46:58;;;;;;;12.80;5.40;;;;;;;14.75;56.83;99735.77;106163;1256;74137;-84
2023/10/12 07:55:15;;;;;;;11.50;5.00;;;;;;;15.19;56.64;99732.56;107156;1255;60582;-83
2023/10/12 07:57:36;;;;;;;11.20;4.70;;;;;;;15.31;56.32;99733.03;107114;1256;60487;-84
2023/10/12 08:13:14;;;;;;;13.80;5.70;;;;;;;16.00;55.70;99722.55;107295;1256;73889;-85
2023/10/12 08:21:37;;;;;;;10.60;5.40;;;;;;;16.43;54.90;99725.46;107740;1255;60488;-88
2023/10/12 08:24:09;;;;;;;11.40;5.10;;;;;;;16.57;54.77;99717.79;107316;1256;59289;-84
2023/10/12 08:29:17;;;;;;;11.50;5.70;;;;;;;16.86;54.15;99710.90;106252;1258;68220;-84
2023/10/12 08:31:45;;;;;;;9.40;4.70;;;;;;;17.04;53.87;99708.15;106292;1261;71888;-84
2023/10/12 08:40:27;;;;;;;10.10;5.40;;;;;;;17.40;53.20;99709.59;107575;1254;72777;-83
2023/10/12 08:42:37;;;;;;;10.30;4.90;;;;;;;17.55;52.78;99724.44;108232;1256;71425;-83
2023/10/12 08:45:09;;;;;;;16.90;6.30;;;;;;;17.58;52.72;99711.36;107127;1256;73165;-84
2023/10/12 08:52:55;;;;;;;13.50;5.50;;;;;;;18.16;51.74;99715.11;107468;1256;72567;-90
2023/10/12 08:55:25;;;;;;;13.00;5.80;;;;;;;18.34;51.40;99708.39;107828;1256;73525;-89
2023/10/12 08:58:38;;;;;;;10.90;6.20;;;;;;;18.62;50.75;99707.54;107585;1254;71490;-88
2023/10/12 09:01:10;;;;;;;;;;;;;;;18.96;49.93;99714.58;106648;1262;60955;-81
2023/10/12 09:03:44;;;;;;;9.00;5.30;;;;;;;19.11;49.58;99701.50;106602;1260;61116;-77
2023/10/12 09:08:58;;;;;;;10.80;5.80;;;;;;;19.47;48.82;99699.06;105539;1261;68989;-74
2023/10/12 09:11:29;;;;;;;13.20;5.80;;;;;;;19.77;48.40;99683.98;105655;1259;72793;-75
2023/10/12 09:13:57;;;;;;;17.10;6.90;;;;;;;20.21;47.64;99690.13;105500;1262;60581;-76
2023/10/12 09:16:26;;;;;;;12.90;5.40;;;;;;;20.60;46.66;99687.48;105511;1262;62322;-74
2023/10/12 09:18:57;;;;;;;9.50;5.10;;;;;;;20.86;46.15;99671.91;105668;1257;74922;-73
2023/10/12 09:21:38;;;;;;;9.30;5.10;;;;;;;21.04;45.87;99679.20;105647;1262;68775;-75
2023/10/12 09:24:28;;;;;;;9.90;5.20;;;;;;;21.34;45.35;99685.16;105594;1260;74800;-75
2023/10/12 09:27:01;;;;;;;7.70;4.90;;;;;;;21.57;44.81;99672.92;105471;1257;60552;-74
2023/10/12 09:29:31;;;;;;;11.80;5.20;;;;;;;21.72;44.61;99675.47;105688;1262;59732;-77
2023/10/12 09:35:02;;;;;;;8.70;4.70;;;;;;;22.02;44.24;99647.48;105716;1260;70928;-76
2023/10/12 09:37:47;;;;;;;9.60;5.40;;;;;;;22.22;43.97;99643.47;105605;1256;72787;-76
2023/10/12 09:40:38;;;;;;;11.90;5.00;;;;;;;22.25;44.12;99630.59;105637;1262;61081;-74
2023/10/12 09:43:17;;;;;;;8.00;4.90;;;;;;;22.22;44.03;99645.34;105643;1262;60340;-75
2023/10/12 09:45:45;;;;;;;6.70;4.50;;;;;;;22.23;43.91;99660.31;105558;1261;73883;-74
2023/10/12 09:48:19;;;;;;;10.70;4.50;;;;;;;22.38;43.70;99632.63;105460;1256;69396;-72
2023/10/12 09:50:48;;;;;;;9.70;4.60;;;;;;;22.63;43.47;99620.53;105816;1256;72477;-75
2023/10/12 09:53:24;;;;;;;10.40;4.60;;;;;;;22.94;42.88;99608.30;105556;1257;60476;-75
2023/10/12 09:56:11;;;;;;;6.60;3.70;;;;;;;23.30;42.48;99613.39;105704;1261;60577;-75
2023/10/12 09:58:51;;;;;;;11.40;5.50;;;;;;;23.64;41.71;99600.15;105942;1257;73830;-77
2023/10/12 10:01:45;;;;;;;8.50;4.70;;;;;;;23.89;41.30;99597.20;108114;1257;70204;-76
2023/10/12 10:07:15;;;;;;;14.00;5.50;;;;;;;23.92;41.34;99586.97;106443;1257;60485;-76
2023/10/12 10:09:48;;;;;;;11.50;4.70;;;;;;;23.83;41.26;99587.93;105638;1261;60427;-76
2023/10/12 10:12:17;;;;;;;7.70;4.30;;;;;;;23.97;41.08;99583.63;105688;1262;74828;-77
2023/10/12 10:14:46;;;;;;;9.90;5.10;;;;;;;24.28;40.85;99587.86;105623;1260;69433;-77
2023/10/12 10:17:16;;;;;;;10.80;4.80;;;;;;;24.62;40.01;99591.43;105704;1256;72683;-76
2023/10/12 10:19:51;;;;;;;9.30;4.40;;;;;;;24.82;39.67;99583.42;105608;1259;60471;-77
2023/10/12 10:22:21;;;;;;;13.00;5.00;;;;;;;24.89;39.55;99573.28;105445;1256;60516;-77
2023/10/12 10:24:55;;;;;;;9.90;3.80;;;;;;;24.98;39.24;99585.09;105403;1264;73939;-77
2023/10/12 10:27:33;;;;;;;9.60;5.00;;;;;;;24.92;39.34;99578.18;105647;1257;69963;-77
2023/10/12 10:30:36;;;;;;;8.90;4.80;;;;;;;24.97;39.37;99561.02;105782;1257;72706;-76
2023/10/12 10:33:13;;;;;;;12.20;5.80;;;;;;;25.35;38.88;99561.45;105820;1257;60385;-77
2023/10/12 10:36:10;;;;;;;7.60;4.90;;;;;;;25.71;38.29;99555.11;107239;1259;59169;-76
2023/10/12 10:44:15;;;;;;;9.20;4.60;;;;;;;25.61;38.42;99566.09;105897;1260;71167;-77
2023/10/12 10:46:45;;;;;;;11.40;5.10;;;;;;;25.48;38.29;99571.64;105758;1261;60552;-77
2023/10/12 10:49:16;;;;;;;10.30;4.60;;;;;;;25.36;38.47;99565.42;105462;1256;60525;-77
2023/10/12 10:52:02;;;;;;;8.30;4.30;;;;;;;25.29;38.61;99565.98;105727;1257;74316;-78
2023/10/12 10:54:31;;;;;;;11.20;5.00;;;;;;;25.33;38.57;99575.16;105693;1269;69252;-77
2023/10/12 10:57:02;;;;;;;11.20;4.60;;;;;;;25.42;38.48;99565.16;105578;1258;73508;-76
2023/10/12 10:59:31;;;;;;;12.90;4.70;;;;;;;25.61;38.24;99557.67;105679;1260;60398;-76
2023/10/12 11:01:59;;;;;;;6.40;4.00;;;;;;;25.74;37.98;99550.15;106379;1262;62185;-75
2023/10/12 11:07:03;;;;;;;7.80;4.20;;;;;;;25.58;38.15;99543.31;106465;1255;70388;-78
2023/10/12 11:10:04;;;;;;;8.70;4.60;;;;;;;25.34;38.62;99543.79;105677;1259;71166;-77
2023/10/12 11:12:22;;;;;;;8.40;4.40;;;;;;;25.07;38.98;99527.34;105723;1260;60429;-77
2023/10/12 11:17:41;;;;;;;13.10;5.30;;;;;;;25.02;39.30;99518.81;105535;1260;174685;-76
2023/10/12 11:21:21;;;;;;;9.80;5.00;;;;;;;25.23;39.12;99509.02;102407;1298;603811;-75
2023/10/12 11:23:51;;;;;;;12.50;5.20;;;;;;;25.24;38.95;99511.35;105058;1267;59254;-76
2023/10/12 11:26:17;;;;;;;8.80;4.50;;;;;;;25.04;39.32;99504.03;104972;1270;59306;-75
2023/10/12 11:28:45;;;;;;;8.20;4.90;;;;;;;24.89;39.41;99507.42;105002;1270;72312;-78
2023/10/12 11:31:30;;;;;;;11.90;4.70;;;;;;;24.83;39.67;99497.64;105042;1267;68991;-76
2023/10/12 11:33:58;;;;;;;7.40;4.20;;;;;;;24.92;39.67;99486.23;104906;1264;188925;-76
2023/10/12 11:36:26;;;;;;;11.60;5.00;;;;;;;25.04;39.50;99489.08;105162;1264;59282;-77
2023/10/12 11:39:04;;;;;;;12.60;4.70;;;;;;;25.20;39.43;99484.23;105734;1257;59610;-75
2023/10/12 11:41:31;;;;;;;9.30;4.70;;;;;;;25.37;39.19;99488.54;105887;1262;72209;-76
2023/10/12 11:43:57;;;;;;;9.70;5.50;;;;;;;25.45;39.23;99479.34;105740;1261;69500;-75
2023/10/12 11:46:25;;;;;;;9.10;4.60;;;;;;;25.52;39.10;99483.75;105578;1257;72377;-75
2023/10/12 11:49:08;;;;;;;10.70;5.10;;;;;;;25.47;39.20;99491.63;105733;1256;60262;-77
2023/10/12 11:51:40;;;;;;;12.10;5.10;;;;;;;25.20;39.41;99476.67;105675;1258;59760;-77
2023/10/12 11:54:19;;;;;;;11.00;5.00;;;;;;;24.99;39.94;99485.05;106046;1257;73162;-76
2023/10/12 11:56:49;;;;;;;9.20;4.60;;;;;;;24.86;40.12;99481.23;106174;1253;68921;-75
2023/10/12 11:59:25;;;;;;;8.70;4.70;;;;;;;24.87;39.96;99481.29;106439;1256;73917;-76
2023/10/12 12:01:56;;;;;;;10.60;5.40;;;;;;;25.02;39.74;99493.48;107253;1252;60300;-77
2023/10/12 12:04:39;;;;;;;13.30;5.10;;;;;;;24.97;39.61;99494.78;107609;1256;59956;-76
2023/10/12 12:07:10;;;;;;;7.80;4.50;;;;;;;24.98;39.79;99467.46;107102;1253;72636;-77
2023/10/12 12:09:39;;;;;;;10.00;4.50;;;;;;;25.29;39.45;99467.05;106003;1253;69068;-77
2023/10/12 12:12:12;;;;;;;11.60;4.60;;;;;;;25.60;38.91;99471.55;106201;1252;71450;-78
2023/10/12 12:14:39;;;;;;;;;;;;;;;25.80;38.66;99457.87;106084;1254;60213;-77
2023/10/12 12:17:05;;;;;;;11.80;5.00;;;;;;;25.97;38.39;99450.11;105855;1253;59783;-76
2023/10/12 12:19:33;;;;;;;17.30;4.80;;;;;;;26.07;38.07;99452.75;105929;1253;74348;-77
2023/10/12 12:22:00;;;;;;;12.80;5.60;;;;;;;26.00;38.31;99440.86;105986;1251;69224;-75
2023/10/12 12:24:29;;;;;;;7.80;4.50;;;;;;;25.93;38.58;99429.13;105945;1253;72607;-80
2023/10/12 12:26:56;;;;;;;13.60;5.70;;;;;;;25.83;38.87;99421.13;106074;1251;60024;-76
2023/10/12 12:29:28;;;;;;;12.30;5.90;;;;;;;25.69;38.78;99426.66;106069;1251;62016;-76
2023/10/12 12:32:12;;;;;;;15.00;5.20;;;;;;;25.42;38.99;99440.95;106028;1256;72910;-76
2023/10/12 12:34:41;;;;;;;10.50;5.10;;;;;;;24.95;39.55;99440.42;106061;1256;70174;-76
2023/10/12 12:37:08;;;;;;;13.10;6.10;;;;;;;24.41;40.10;99425.38;105784;1254;71732;-76
2023/10/12 12:39:35;;;;;;;13.80;6.30;;;;;;;23.95;41.06;99423.28;105843;1251;60399;-75
2023/10/12 12:42:02;;;;;;;9.50;4.70;;;;;;;23.64;41.50;99414.90;105759;1257;60354;-76
2023/10/12 12:44:29;;;;;;;15.80;5.40;;;;;;;23.39;42.11;99408.45;105798;1257;72987;-75
2023/10/12 12:46:56;;;;;;;13.60;5.30;;;;;;;23.21;42.44;99408.48;105789;1253;70057;-76
2023/10/12 12:49:24;;;;;;;15.00;4.90;;;;;;;23.01;42.54;99427.86;105913;1252;72497;-75
2023/10/12 12:51:51;;;;;;;9.40;5.00;;;;;;;22.80;42.90;99403.04;106091;1253;60479;-76
2023/10/12 12:54:18;;;;;;;13.20;5.10;;;;;;;22.70;43.06;99406.84;105852;1253;60120;-75
2023/10/12 12:56:45;;;;;;;13.60;4.80;;;;;;;22.67;43.07;99391.27;105856;1254;73073;-74
2023/10/12 12:59:11;;;;;;;12.40;5.30;;;;;;;22.66;43.22;99391.31;105913;1254;70516;-78
2023/10/12 13:01:41;;;;;;;12.60;5.30;;;;;;;22.66;43.04;99397.10;105989;1252;72724;-75
2023/10/12 13:04:11;;;;;;;9.60;4.30;;;;;;;22.65;43.03;99386.75;107011;1257;59802;-76
2023/10/12 13:06:38;;;;;;;13.30;5.40;;;;;;;22.63;43.05;99388.56;106996;1256;59529;-74
2023/10/12 13:09:05;;;;;;;11.90;6.30;;;;;;;22.63;43.03;99389.70;105923;1253;73023;-74
2023/10/12 13:11:34;;;;;;;11.10;5.60;;;;;;;22.63;43.04;99383.26;105970;1254;70163;-75
2023/10/12 13:14:01;;;;;;;9.10;5.50;;;;;;;22.62;42.96;99388.88;105924;1254;72828;-74
2023/10/12 13:16:28;;;;;;;10.10;4.80;;;;;;;22.57;43.09;99383.27;105893;1255;59747;-74
2023/10/12 13:18:55;;;;;;;12.70;5.60;;;;;;;22.52;43.25;99389.98;105938;1256;60325;-75
2023/10/12 13:21:23;;;;;;;12.20;5.20;;;;;;;22.46;43.16;99399.44;105915;1253;75289;-75
2023/10/12 13:23:51;;;;;;;12.50;6.00;;;;;;;22.36;43.34;99400.03;105804;1253;69617;-75
2023/10/12 13:26:19;;;;;;;10.20;5.20;;;;;;;22.23;43.47;99392.95;105979;1253;72490;-76
2023/10/12 13:28:46;;;;;;;10.90;4.50;;;;;;;22.09;43.65;99396.95;105916;1251;59787;-72
2023/10/12 13:31:13;;;;;;;9.90;4.90;;;;;;;21.97;43.73;99404.42;105710;1252;60537;-74
2023/10/12 13:33:41;;;;;;;10.40;5.50;;;;;;;21.86;43.90;99406.65;105930;1257;73158;-74
2023/10/12 13:36:08;;;;;;;7.70;5.20;;;;;;;21.76;44.12;99397.29;105885;1255;70004;-74
2023/10/12 13:38:37;;;;;;;11.60;5.00;;;;;;;21.69;44.35;99390.71;105779;1254;72611;-75
2023/10/12 13:41:03;;;;;;;12.90;5.60;;;;;;;21.64;44.48;99383.45;105837;1251;60352;-74
2023/10/12 13:43:30;;;;;;;13.30;4.80;;;;;;;21.61;44.77;99384.70;105872;1252;60392;-73
2023/10/12 13:45:58;;;;;;;10.30;4.40;;;;;;;21.57;44.79;99379.19;106125;1253;73150;-76
2023/10/12 13:48:27;;;;;;;12.30;4.60;;;;;;;21.53;45.01;99381.73;106084;1251;70088;-75
2023/10/12 13:51:02;;;;;;;11.40;4.10;;;;;;;21.49;45.14;99384.68;106037;1256;71547;-73
2023/10/12 13:53:34;;;;;;;9.30;5.60;;;;;;;21.42;45.32;99384.72;106104;1251;61651;-73
2023/10/12 13:56:04;;;;;;;9.10;4.00;;;;;;;21.34;45.51;99385.11;106052;1251;60130;-74
2023/10/12 13:58:34;;;;;;;11.00;4.50;;;;;;;21.28;45.67;99391.17;106050;1255;73044;-73
2023/10/12 14:01:04;;;;;;;12.00;4.50;;;;;;;21.23;45.84;99396.60;106155;1257;70178;-73
2023/10/12 14:03:38;;;;;;;7.60;4.80;;;;;;;21.17;45.96;99405.48;106065;1253;71490;-73
2023/10/12 14:06:08;;;;;;;16.00;5.80;;;;;;;21.14;46.14;99387.11;106233;1251;59824;-73
2023/10/12 14:08:40;;;;;;;13.70;4.90;;;;;;;21.09;46.31;99405.06;105992;1253;60048;-73
2023/10/12 14:11:14;;;;;;;8.90;4.80;;;;;;;21.03;46.56;99391.20;105952;1253;72867;-73
2023/10/12 14:13:41;;;;;;;;;;;;;;;20.99;46.65;99382.08;105993;1253;70372;-73
2023/10/12 14:16:08;;;;;;;16.20;6.60;;;;;;;20.95;46.73;99374.23;105922;1253;59628;-73
2023/10/12 14:18:36;;;;;;;13.40;5.10;;;;;;;20.91;46.98;99383.77;106100;1253;60261;-72